createdAt,value
2019-05-18T00:00:37.874Z,10.77
2019-05-18T00:03:09.656Z,8.63
2019-05-18T00:05:41.066Z,8.60
2019-05-18T00:08:12.517Z,9.73
2019-05-18T00:10:44.282Z,8.83
2019-05-18T00:13:15.691Z,9.37
2019-05-18T00:15:47.052Z,8.90
2019-05-18T00:18:18.511Z,9.37
2019-05-18T00:20:49.846Z,8.60
2019-05-18T00:23:21.302Z,9.30
2019-05-18T00:25:52.756Z,8.77
2019-05-18T00:28:25.957Z,9.20
2019-05-18T00:30:57.194Z,9.63
2019-05-18T00:33:28.722Z,9.97
2019-05-18T00:36:00.111Z,12.20
2019-05-18T00:38:31.522Z,17.80
2019-05-18T00:41:02.978Z,9.87
2019-05-18T00:43:34.566Z,10.27
2019-05-18T00:46:06.271Z,9.97
2019-05-18T00:48:38.132Z,9.40
2019-05-18T00:51:09.558Z,9.37
2019-05-18T00:53:40.864Z,10.63
2019-05-18T00:56:12.302Z,10.70
2019-05-18T00:58:43.786Z,10.43
2019-05-18T01:01:15.426Z,10.00
2019-05-18T01:03:48.144Z,13.13
2019-05-18T01:06:19.617Z,13.73
2019-05-18T01:08:51.288Z,9.17
2019-05-18T01:11:23.048Z,9.30
2019-05-18T01:13:54.483Z,10.80
2019-05-18T01:16:25.870Z,9.70
2019-05-18T01:18:57.557Z,9.77
2019-05-18T01:21:29.109Z,9.90
2019-05-18T01:24:00.920Z,9.50
2019-05-18T01:26:36.521Z,9.53
2019-05-18T01:29:08.673Z,11.00
2019-05-18T01:31:40.585Z,10.53
2019-05-18T01:34:11.974Z,9.80
2019-05-18T01:36:43.644Z,9.17
2019-05-18T01:39:15.761Z,16.03
2019-05-18T01:41:50.057Z,10.70
2019-05-18T01:44:22.396Z,9.20
2019-05-18T01:46:56.270Z,31.03
2019-05-18T01:49:28.325Z,9.90
2019-05-18T01:52:00.119Z,9.43
2019-05-18T01:54:31.649Z,9.77
2019-05-18T01:57:03.333Z,10.33
2019-05-18T01:59:36.535Z,9.50
2019-05-18T02:02:08.037Z,13.30
2019-05-18T02:04:39.297Z,9.93
2019-05-18T02:07:10.726Z,10.87
2019-05-18T02:09:45.009Z,11.27
2019-05-18T02:12:17.093Z,10.90
2019-05-18T02:14:49.711Z,10.40
2019-05-18T02:17:24.050Z,11.07
2019-05-18T02:19:55.536Z,15.20
2019-05-18T02:22:27.042Z,11.83
2019-05-18T02:24:58.790Z,13.50
2019-05-18T02:27:30.645Z,12.97
2019-05-18T02:30:02.403Z,12.77
2019-05-18T02:32:43.842Z,12.10
2019-05-18T02:35:20.103Z,13.93
2019-05-18T02:37:51.903Z,14.63
2019-05-18T02:40:23.225Z,15.00
2019-05-18T02:42:54.882Z,13.30
2019-05-18T02:45:26.397Z,16.97
2019-05-18T02:47:58.112Z,15.83
2019-05-18T02:50:29.609Z,21.60
2019-05-18T02:53:01.791Z,18.37
2019-05-18T02:55:33.643Z,22.70
2019-05-18T02:58:06.153Z,16.93
2019-05-18T03:00:37.995Z,21.83
2019-05-18T03:03:09.558Z,16.10
2019-05-18T03:05:41.021Z,16.07
2019-05-18T03:08:12.738Z,16.33
2019-05-18T03:10:44.148Z,20.03
2019-05-18T03:13:16.569Z,20.20
2019-05-18T03:15:47.944Z,22.50
2019-05-18T03:18:19.368Z,19.57
2019-05-18T03:20:51.024Z,17.43
2019-05-18T03:23:22.618Z,18.67
2019-05-18T03:25:54.029Z,17.60
2019-05-18T03:28:25.728Z,17.30
2019-05-18T03:30:57.360Z,19.33
2019-05-18T03:33:30.169Z,24.60
2019-05-18T03:36:01.735Z,27.93
2019-05-18T03:38:33.195Z,21.80
2019-05-18T03:41:04.486Z,24.87
2019-05-18T03:43:37.857Z,23.23
2019-05-18T03:46:09.104Z,19.07
2019-05-18T03:48:40.492Z,23.23
2019-05-18T03:51:11.942Z,20.93
2019-05-18T03:53:43.372Z,21.13
2019-05-18T03:56:14.614Z,23.23
2019-05-18T03:58:46.135Z,27.53
2019-05-18T04:01:17.361Z,25.27
2019-05-18T04:03:48.873Z,34.90
2019-05-18T04:06:22.958Z,25.40
2019-05-18T04:08:54.581Z,24.17
2019-05-18T04:11:25.802Z,32.43
2019-05-18T04:13:58.488Z,23.83
2019-05-18T04:16:31.071Z,27.73
2019-05-18T04:19:02.575Z,30.07
2019-05-18T04:21:34.102Z,26.60
2019-05-18T04:24:05.467Z,26.60
2019-05-18T04:26:36.912Z,27.80
2019-05-18T04:29:08.693Z,32.10
2019-05-18T04:31:40.426Z,30.73
2019-05-18T04:34:12.134Z,31.43
2019-05-18T04:36:43.729Z,26.63
2019-05-18T04:39:21.310Z,29.70
2019-05-18T04:41:52.996Z,33.03
2019-05-18T04:44:24.530Z,28.77
2019-05-18T04:46:57.593Z,41.90
2019-05-18T04:49:30.629Z,37.10
2019-05-18T04:52:01.933Z,36.03
2019-05-18T04:54:34.133Z,33.73
2019-05-18T04:57:06.153Z,36.87
2019-05-18T04:59:37.599Z,31.63
2019-05-18T05:02:09.383Z,36.13
2019-05-18T05:04:41.002Z,37.37
2019-05-18T05:07:12.320Z,39.97
2019-05-18T05:09:44.001Z,43.80
2019-05-18T05:12:16.173Z,34.60
2019-05-18T05:14:49.951Z,35.50
2019-05-18T05:17:21.563Z,46.03
2019-05-18T05:19:52.872Z,40.13
2019-05-18T05:22:25.314Z,37.93
2019-05-18T05:24:57.259Z,43.50
2019-05-18T05:27:30.825Z,45.03
2019-05-18T05:30:07.231Z,42.87
2019-05-18T05:32:46.281Z,47.07
2019-05-18T05:35:18.032Z,44.80
2019-05-18T05:37:49.918Z,51.13
2019-05-18T05:40:21.714Z,44.40
2019-05-18T05:42:53.899Z,40.40
2019-05-18T05:45:25.983Z,47.87
2019-05-18T05:47:57.446Z,51.97
2019-05-18T05:50:35.774Z,46.47
2019-05-18T05:53:03.048Z,49.90
2019-05-18T05:55:35.031Z,52.23
2019-05-18T05:58:06.782Z,42.03
2019-05-18T06:00:38.185Z,47.93
2019-05-18T06:03:10.458Z,45.40
2019-05-18T06:05:41.981Z,52.83
2019-05-18T06:08:13.611Z,45.90
2019-05-18T06:10:45.375Z,46.17
2019-05-18T06:13:16.843Z,43.43
2019-05-18T06:15:48.335Z,57.30
2019-05-18T06:18:19.852Z,45.17
2019-05-18T06:20:52.183Z,58.27
2019-05-18T06:23:23.621Z,50.90
2019-05-18T06:25:55.107Z,55.37
2019-05-18T06:28:26.729Z,47.17
2019-05-18T06:31:00.237Z,51.03
2019-05-18T06:33:31.771Z,46.60
2019-05-18T06:36:03.333Z,46.00
2019-05-18T06:38:34.791Z,53.00
2019-05-18T06:41:06.026Z,49.40
2019-05-18T06:43:37.430Z,52.57
2019-05-18T06:46:08.700Z,47.30
2019-05-18T06:48:39.942Z,46.43
2019-05-18T06:51:11.393Z,45.77
2019-05-18T06:53:42.985Z,48.03
2019-05-18T06:56:14.956Z,47.60
2019-05-18T06:58:46.685Z,40.87
2019-05-18T07:01:17.945Z,50.87
2019-05-18T07:03:52.111Z,46.20
2019-05-18T07:06:23.169Z,46.70
2019-05-18T07:08:56.469Z,43.80
2019-05-18T07:11:29.699Z,52.20
2019-05-18T07:14:01.238Z,46.33
2019-05-18T07:16:32.739Z,43.97
2019-05-18T07:19:04.472Z,41.63
2019-05-18T07:21:35.897Z,40.43
2019-05-18T07:24:10.049Z,40.10
2019-05-18T07:26:42.741Z,43.80
2019-05-18T07:29:50.511Z,48.40
2019-05-18T07:32:31.330Z,41.30
2019-05-18T07:35:02.951Z,44.30
2019-05-18T07:37:45.375Z,42.80
2019-05-18T07:40:17.074Z,41.23
2019-05-18T07:42:48.708Z,39.53
2019-05-18T07:45:20.321Z,39.83
2019-05-18T07:47:51.633Z,41.77
2019-05-18T07:50:23.111Z,34.07
2019-05-18T07:52:54.922Z,37.03
2019-05-18T07:55:26.604Z,39.77
2019-05-18T07:58:01.379Z,37.67
2019-05-18T08:00:34.098Z,39.80
2019-05-18T08:03:06.266Z,44.00
2019-05-18T08:05:37.840Z,38.60
2019-05-18T08:08:09.591Z,37.63
2019-05-18T08:10:43.616Z,42.77
2019-05-18T08:13:16.799Z,42.53
2019-05-18T08:15:48.653Z,44.03
2019-05-18T08:18:21.927Z,36.50
2019-05-18T08:20:53.315Z,44.43
2019-05-18T08:23:24.813Z,41.40
2019-05-18T08:25:56.951Z,44.00
2019-05-18T08:28:29.440Z,41.07
2019-05-18T08:31:01.221Z,45.03
2019-05-18T08:33:33.057Z,38.90
2019-05-18T08:36:04.737Z,42.20
2019-05-18T08:38:36.603Z,38.10
2019-05-18T08:41:07.894Z,39.93
2019-05-18T08:43:39.184Z,35.33
2019-05-18T08:46:10.616Z,38.80
2019-05-18T08:48:42.063Z,42.83
2019-05-18T08:51:16.068Z,34.37
2019-05-18T08:53:47.808Z,31.03
2019-05-18T08:56:19.280Z,33.87
2019-05-18T08:58:51.749Z,29.17
2019-05-18T09:01:23.429Z,30.40
2019-05-18T09:03:54.763Z,30.50
2019-05-18T09:06:26.531Z,33.27
2019-05-18T09:08:57.940Z,32.53
2019-05-18T09:11:29.592Z,32.37
2019-05-18T09:14:01.376Z,35.27
2019-05-18T09:16:32.813Z,36.13
2019-05-18T09:19:04.804Z,38.63
2019-05-18T09:21:36.349Z,37.13
2019-05-18T09:24:09.126Z,38.80
2019-05-18T09:26:42.036Z,35.67
2019-05-18T09:29:16.879Z,29.67
2019-05-18T09:31:48.421Z,33.90
2019-05-18T09:34:19.867Z,28.20
2019-05-18T09:36:51.948Z,33.13
2019-05-18T09:39:23.383Z,36.70
2019-05-18T09:41:56.266Z,36.13
2019-05-18T09:44:27.858Z,30.43
2019-05-18T09:46:59.639Z,36.70
2019-05-18T09:49:30.996Z,34.27
2019-05-18T09:52:02.747Z,38.83
2019-05-18T09:54:35.607Z,35.07
2019-05-18T09:57:06.901Z,34.67
2019-05-18T09:59:39.374Z,27.07
2019-05-18T10:02:10.812Z,32.53
2019-05-18T10:04:42.734Z,44.03
2019-05-18T10:07:14.288Z,30.83
2019-05-18T10:09:45.689Z,32.07
2019-05-18T10:12:17.157Z,28.60
2019-05-18T10:14:48.752Z,26.70
2019-05-18T10:17:20.012Z,61.60
2019-05-18T10:19:51.229Z,26.83
2019-05-18T10:22:22.965Z,33.50
2019-05-18T10:24:54.576Z,27.00
2019-05-18T10:27:27.270Z,26.77
2019-05-18T10:29:58.528Z,27.07
2019-05-18T10:32:31.409Z,29.37
2019-05-18T10:35:14.261Z,27.73
2019-05-18T10:37:45.566Z,25.87
2019-05-18T10:40:18.109Z,26.60
2019-05-18T10:42:49.649Z,26.97
2019-05-18T10:45:21.055Z,31.90
2019-05-18T10:48:28.647Z,29.30
2019-05-18T10:51:15.361Z,30.23
2019-05-18T10:53:48.030Z,26.13
2019-05-18T10:56:57.073Z,27.53
2019-05-18T10:59:28.385Z,29.63
2019-05-18T11:02:10.748Z,25.50
2019-05-18T11:04:43.023Z,30.57
2019-05-18T11:07:14.407Z,31.50
2019-05-18T11:09:57.266Z,30.43
2019-05-18T11:12:47.074Z,28.50
2019-05-18T11:15:29.131Z,29.93
2019-05-18T11:18:10.936Z,28.33
2019-05-18T11:20:48.666Z,26.67
2019-05-18T11:23:26.687Z,28.40
2019-05-18T11:26:07.664Z,24.90
2019-05-18T11:28:39.731Z,26.70
2019-05-18T11:31:11.804Z,24.30
2019-05-18T11:33:43.497Z,25.60
2019-05-18T11:36:14.968Z,25.40
2019-05-18T11:38:47.345Z,29.47
2019-05-18T11:41:18.910Z,27.33
2019-05-18T11:43:50.380Z,25.33
2019-05-18T11:46:22.211Z,27.87
2019-05-18T11:48:54.464Z,29.20
2019-05-18T11:51:26.298Z,29.60
2019-05-18T11:53:58.663Z,28.77
2019-05-18T11:56:30.678Z,25.83
2019-05-18T11:59:02.214Z,25.70
2019-05-18T12:01:33.919Z,26.30
2019-05-18T12:04:05.662Z,24.63
2019-05-18T12:06:37.385Z,29.53
2019-05-18T12:09:09.177Z,29.03
2019-05-18T12:11:41.029Z,30.20
2019-05-18T12:14:12.845Z,24.70
2019-05-18T12:16:46.116Z,28.03
2019-05-18T12:19:17.475Z,28.57
2019-05-18T12:21:49.453Z,31.87
2019-05-18T12:24:22.661Z,27.00
2019-05-18T12:26:57.912Z,29.17
2019-05-18T12:29:30.717Z,34.57
2019-05-18T12:32:03.817Z,31.57
2019-05-18T12:34:35.507Z,31.80
2019-05-18T12:37:07.082Z,29.17
2019-05-18T12:39:38.400Z,29.00
2019-05-18T12:42:09.900Z,32.77
2019-05-18T12:44:41.171Z,27.27
2019-05-18T12:47:14.486Z,33.50
2019-05-18T12:49:45.592Z,28.70
2019-05-18T12:52:18.429Z,28.90
2019-05-18T12:54:50.968Z,29.90
2019-05-18T12:57:22.955Z,28.40
2019-05-18T12:59:54.527Z,27.53
2019-05-18T13:02:26.412Z,28.47
2019-05-18T13:04:58.291Z,29.77
2019-05-18T13:07:30.428Z,28.30
2019-05-18T13:10:01.854Z,27.47
2019-05-18T13:12:43.976Z,31.13
2019-05-18T13:15:17.643Z,30.60
2019-05-18T13:17:50.930Z,27.87
2019-05-18T13:20:25.039Z,28.90
2019-05-18T13:22:56.832Z,31.00
2019-05-18T13:25:28.420Z,32.00
2019-05-18T13:27:59.723Z,27.70
2019-05-18T13:30:31.527Z,29.37
2019-05-18T13:33:05.624Z,35.73
2019-05-18T13:35:38.227Z,27.80
2019-05-18T13:38:10.059Z,29.60
2019-05-18T13:40:41.735Z,28.47
2019-05-18T13:43:13.029Z,29.50
2019-05-18T13:45:47.051Z,28.07
2019-05-18T13:48:18.498Z,35.77
2019-05-18T13:50:50.958Z,28.43
2019-05-18T13:53:22.824Z,26.67
2019-05-18T13:55:56.607Z,26.47
2019-05-18T13:58:30.779Z,28.17
2019-05-18T14:01:02.714Z,31.70
2019-05-18T14:03:34.745Z,28.43
2019-05-18T14:06:06.125Z,25.10
2019-05-18T14:08:38.672Z,29.83
2019-05-18T14:11:10.331Z,29.20
2019-05-18T14:13:42.655Z,26.57
2019-05-18T14:16:14.265Z,29.80
2019-05-18T14:18:47.853Z,26.00
2019-05-18T14:21:19.150Z,30.47
2019-05-18T14:23:50.460Z,24.70
2019-05-18T14:26:21.837Z,26.70
2019-05-18T14:28:53.109Z,33.37
2019-05-18T14:31:24.799Z,26.67
2019-05-18T14:33:56.352Z,29.90
2019-05-18T14:36:27.663Z,28.50
2019-05-18T14:38:59.357Z,26.57
2019-05-18T14:41:30.984Z,27.93
2019-05-18T14:44:02.603Z,26.60
2019-05-18T14:46:34.464Z,28.07
2019-05-18T14:49:05.720Z,26.30
2019-05-18T14:51:37.063Z,28.70
2019-05-18T14:54:08.428Z,27.30
2019-05-18T14:56:42.226Z,28.90
2019-05-18T14:59:13.560Z,28.70
2019-05-18T15:01:45.007Z,25.60
2019-05-18T15:04:18.769Z,28.07
2019-05-18T15:06:50.314Z,25.10
2019-05-18T15:09:21.570Z,28.60
2019-05-18T15:11:52.993Z,25.77
2019-05-18T15:14:24.811Z,23.77
2019-05-18T15:16:57.012Z,25.37
2019-05-18T15:19:28.869Z,23.03
2019-05-18T15:22:02.080Z,21.77
2019-05-18T15:24:34.848Z,26.43
2019-05-18T15:27:08.741Z,27.43
2019-05-18T15:29:43.379Z,22.03
2019-05-18T15:32:14.959Z,22.83
2019-05-18T15:34:47.224Z,22.00
2019-05-18T15:37:19.863Z,23.63
2019-05-18T15:39:51.742Z,24.87
2019-05-18T15:42:23.986Z,22.37
2019-05-18T15:44:55.327Z,23.80
2019-05-18T15:47:27.224Z,27.30
2019-05-18T15:50:00.129Z,25.70
2019-05-18T15:52:42.455Z,26.80
2019-05-18T15:55:18.312Z,25.87
2019-05-18T15:57:52.898Z,26.60
2019-05-18T16:00:24.968Z,22.80
2019-05-18T16:03:00.015Z,22.67
2019-05-18T16:05:34.471Z,27.97
2019-05-18T16:08:06.017Z,28.10
2019-05-18T16:10:40.019Z,23.50
2019-05-18T16:13:12.607Z,24.53
2019-05-18T16:15:46.094Z,34.20
2019-05-18T16:18:18.004Z,22.13
2019-05-18T16:20:50.960Z,24.37
2019-05-18T16:23:24.490Z,20.23
2019-05-18T16:25:56.974Z,23.83
2019-05-18T16:28:29.854Z,21.40
2019-05-18T16:31:03.432Z,21.50
2019-05-18T16:33:36.913Z,24.20
2019-05-18T16:36:10.367Z,23.30
2019-05-18T16:38:44.482Z,22.30
2019-05-18T16:41:18.050Z,22.50
2019-05-18T16:43:51.407Z,24.87
2019-05-18T16:46:23.028Z,20.83
2019-05-18T16:48:57.089Z,21.27
2019-05-18T16:51:28.993Z,19.73
2019-05-18T16:54:03.224Z,20.73
2019-05-18T16:56:36.376Z,21.23
2019-05-18T16:59:08.277Z,19.10
2019-05-18T17:01:41.641Z,21.40
2019-05-18T17:04:15.182Z,19.77
2019-05-18T17:06:47.351Z,21.27
2019-05-18T17:09:22.544Z,20.17
2019-05-18T17:11:55.163Z,22.37
2019-05-18T17:14:27.269Z,22.27
2019-05-18T17:17:01.805Z,22.60
2019-05-18T17:19:34.729Z,18.03
2019-05-18T17:22:07.546Z,18.13
2019-05-18T17:24:46.173Z,27.33
2019-05-18T17:27:22.737Z,23.53
2019-05-18T17:29:56.301Z,20.97
2019-05-18T17:32:30.479Z,23.97
2019-05-18T17:35:02.121Z,24.67
2019-05-18T17:37:45.951Z,25.87
2019-05-18T17:40:19.705Z,18.97
2019-05-18T17:43:03.382Z,25.77
2019-05-18T17:45:46.569Z,25.23
2019-05-18T17:48:31.690Z,23.23
2019-05-18T17:51:14.104Z,20.53
2019-05-18T17:53:54.000Z,23.77
2019-05-18T17:56:31.631Z,24.60
2019-05-18T17:59:05.584Z,27.40
2019-05-18T18:01:39.030Z,23.63
2019-05-18T18:04:12.218Z,24.73
2019-05-18T18:06:45.576Z,23.03
2019-05-18T18:09:17.700Z,19.90
2019-05-18T18:11:54.697Z,25.07
2019-05-18T18:14:27.617Z,20.10
2019-05-18T18:17:00.139Z,21.00
2019-05-18T18:19:33.562Z,27.87
2019-05-18T18:22:05.737Z,23.53
2019-05-18T18:24:40.651Z,25.50
2019-05-18T18:27:24.887Z,23.00
2019-05-18T18:29:50.030Z,21.23
2019-05-18T18:32:24.032Z,26.20
2019-05-18T18:34:58.386Z,20.97
2019-05-18T18:37:30.673Z,22.00
2019-05-18T18:40:02.974Z,20.57
2019-05-18T18:42:47.711Z,21.20
2019-05-18T18:45:20.973Z,25.97
2019-05-18T18:47:54.507Z,25.90
2019-05-18T18:50:26.689Z,30.67
2019-05-18T18:53:00.608Z,21.73
2019-05-18T18:55:32.713Z,23.23
2019-05-18T18:58:05.757Z,20.33
2019-05-18T19:00:38.909Z,28.33
2019-05-18T19:03:11.984Z,27.70
2019-05-18T19:05:47.003Z,41.10
2019-05-18T19:08:20.863Z,23.40
2019-05-18T19:10:53.926Z,27.40
2019-05-18T19:13:26.565Z,27.33
2019-05-18T19:16:01.338Z,28.20
2019-05-18T19:18:32.746Z,29.07
2019-05-18T19:21:05.289Z,24.33
2019-05-18T19:23:38.331Z,23.10
2019-05-18T19:26:11.740Z,26.93
2019-05-18T19:28:45.110Z,21.83
2019-05-18T19:31:17.803Z,30.17
2019-05-18T19:33:51.703Z,44.73
2019-05-18T19:36:23.137Z,37.67
2019-05-18T19:38:56.907Z,29.97
2019-05-18T19:41:34.323Z,28.13
2019-05-18T19:44:06.085Z,27.30
2019-05-18T19:46:44.286Z,25.17
2019-05-18T19:49:17.759Z,27.77
2019-05-18T19:51:51.146Z,31.23
2019-05-18T19:54:24.810Z,35.40
2019-05-18T19:56:57.194Z,31.60
2019-05-18T19:59:30.558Z,30.40
2019-05-18T20:02:04.178Z,28.60
2019-05-18T20:04:36.731Z,21.80
2019-05-18T20:07:11.438Z,34.53
2019-05-18T20:09:43.584Z,25.33
2019-05-18T20:12:15.307Z,23.97
2019-05-18T20:14:48.859Z,23.53
2019-05-18T20:17:21.300Z,29.87
2019-05-18T20:19:54.221Z,34.90
2019-05-18T20:22:27.012Z,103.70
2019-05-18T20:25:02.534Z,32.90
2019-05-18T20:27:45.141Z,28.47
2019-05-18T20:30:19.130Z,24.57
2019-05-18T20:32:53.164Z,27.13
2019-05-18T20:35:26.135Z,23.33
2019-05-18T20:37:58.200Z,24.97
2019-05-18T20:40:30.291Z,23.47
2019-05-18T20:43:02.997Z,24.60
2019-05-18T20:45:37.366Z,21.53
2019-05-18T20:48:10.049Z,28.03
2019-05-18T20:50:42.314Z,22.83
2019-05-18T20:53:15.867Z,27.20
2019-05-18T20:55:48.512Z,31.20
2019-05-18T20:58:21.586Z,28.90
2019-05-18T21:00:54.412Z,26.93
2019-05-18T21:03:28.792Z,32.33
2019-05-18T21:06:03.049Z,29.33
2019-05-18T21:08:36.318Z,26.30
2019-05-18T21:11:09.862Z,32.10
2019-05-18T21:13:42.502Z,29.07
2019-05-18T21:16:14.643Z,30.27
2019-05-18T21:18:47.201Z,28.70
2019-05-18T21:21:25.055Z,32.10
2019-05-18T21:23:53.732Z,28.93
2019-05-18T21:26:27.634Z,27.53
2019-05-18T21:29:02.000Z,35.63
2019-05-18T21:31:48.462Z,34.07
2019-05-18T21:34:33.846Z,39.07
2019-05-18T21:37:05.626Z,37.20
2019-05-18T21:39:47.240Z,33.30
2019-05-18T21:42:24.768Z,31.27
2019-05-18T21:44:59.428Z,30.33
2019-05-18T21:47:47.234Z,32.50
2019-05-18T21:50:20.744Z,30.67
2019-05-18T21:52:53.860Z,29.90
2019-05-18T21:55:44.309Z,29.57
2019-05-18T21:58:18.540Z,31.00
2019-05-18T22:00:53.825Z,33.30
2019-05-18T22:03:28.627Z,34.57
2019-05-18T22:06:03.626Z,30.07
2019-05-18T22:08:35.476Z,30.17
2019-05-18T22:11:09.329Z,37.67
2019-05-18T22:13:41.775Z,35.70
2019-05-18T22:16:15.212Z,40.27
2019-05-18T22:18:49.399Z,32.60
2019-05-18T22:21:23.485Z,29.27
2019-05-18T22:23:55.811Z,40.10
2019-05-18T22:26:31.407Z,34.30
2019-05-18T22:29:05.794Z,26.80
2019-05-18T22:31:45.669Z,30.90
2019-05-18T22:34:19.307Z,33.13
2019-05-18T22:36:56.463Z,29.77
2019-05-18T22:39:26.969Z,34.30
2019-05-18T22:42:01.296Z,31.63
2019-05-18T22:44:35.536Z,31.90
2019-05-18T22:47:08.845Z,40.40
2019-05-18T22:49:42.843Z,36.37
2019-05-18T22:52:14.912Z,37.20
2019-05-18T22:54:46.641Z,39.17
2019-05-18T22:57:21.607Z,34.33
2019-05-18T22:59:53.004Z,34.90
2019-05-18T23:02:27.282Z,38.37
2019-05-18T23:05:00.516Z,38.93
2019-05-18T23:07:43.006Z,35.43
2019-05-18T23:10:17.146Z,37.63
2019-05-18T23:12:50.958Z,45.93
2019-05-18T23:15:22.940Z,41.07
2019-05-18T23:17:56.796Z,43.47
2019-05-18T23:20:30.781Z,43.03
2019-05-18T23:23:05.581Z,48.27
2019-05-18T23:25:39.970Z,37.07
2019-05-18T23:28:12.404Z,39.07
2019-05-18T23:30:44.884Z,38.90
2019-05-18T23:33:16.816Z,38.60
2019-05-18T23:35:48.352Z,40.67
2019-05-18T23:38:22.047Z,38.83
2019-05-18T23:40:58.329Z,40.00
2019-05-18T23:43:29.961Z,40.37
2019-05-18T23:46:03.186Z,42.33
2019-05-18T23:48:36.069Z,46.30
2019-05-18T23:51:11.076Z,59.97
2019-05-18T23:53:44.961Z,49.63
2019-05-18T23:56:18.005Z,45.73
2019-05-18T23:58:52.489Z,37.40
